Latest Coastal Weather Observations for Broome

IDW60701

Issued at 9:33 am WST Tuesday 25 June 2024 (issued every 10 minutes, with the page automatically refreshed every 10 minutes)

About coastal observations | Map of coastal stations | Coastal observations for WA | Marine services | Other Formats
Station Details ID: 003003 Name: BROOME AIRPORT Lat: -17.95 Lon: 122.24 Height: 7.42 m
Data from the previous 72 hours. | See also: Recent months at Broome
Date/Time
WST
Wind Sea
Height
m
Swell Vis
km
Cloud Weather Temp
°C
Press
MSL
hPa
Rain since
9am
mm
Dir  Spd
kts
Gust
kts
Height
m
Period
s
Dir
25/09:30am ESE 8 12 - - - - 10 Clear - 23.0 1015.6 0.0
25/09:00am E 7 11 - - - - 10 - - 22.1 1015.5 0.0
25/08:30am ESE 7 11 - - - - 10 - - 20.5 1015.8 0.0
25/08:00am ESE 7 11 - - - - 10 - - 19.4 1015.5 0.0
25/07:30am E 4 8 - - - - 10 - - 17.7 1015.2 0.0
25/07:00am ESE 5 8 - - - - 10 - - 17.5 1014.7 0.0
25/06:30am SE 6 9 - - - - 10 - - 16.5 1014.3 0.0
25/06:00am SE 6 8 - - - - 10 - - 16.9 1014.2 0.0
25/05:30am SE 4 6 - - - - 10 - - 16.1 1014.0 0.0
25/05:00am ESE 4 6 - - - - 10 - - 15.7 1013.8 0.0
25/04:30am ESE 4 6 - - - - 10 - - 15.9 1013.7 0.0
25/04:00am E 5 6 - - - - 10 - - 15.5 1013.6 0.0
25/03:30am E 5 6 - - - - 10 - - 15.7 1013.6 0.0
25/03:00am SE 3 5 - - - - 10 - - 16.3 1013.6 0.0
25/02:30am ESE 5 6 - - - - 10 - - 15.9 1013.8 0.0
25/02:00am E 4 5 - - - - 10 - - 13.9 1014.0 0.0
25/01:30am NE 4 6 - - - - 10 - - 14.2 1014.2 0.0
25/01:00am SE 3 5 - - - - 10 - - 16.1 1014.4 0.0
25/12:30am SSE 4 5 - - - - 10 - - 16.7 1014.6 0.0
25/12:00am SSE 4 5 - - - - 10 - - 20.1 1014.4 0.0
 
Date/Time
WST
Wind Sea
Height
m
Swell Vis
km
Cloud Weather Temp
°C
Press
MSL
hPa
Rain since
9am
mm
Dir  Spd
kts
Gust
kts
Height
m
Period
s
Dir
24/11:30pm SSE 4 5 - - - - 10 - - 20.6 1014.5 0.0
24/11:00pm SSE 5 7 - - - - 10 - - 21.2 1014.6 0.0
24/10:30pm SSE 5 6 - - - - 10 - - 21.1 1014.7 0.0
24/10:00pm SSW 5 6 - - - - 10 - - 21.5 1014.8 0.0
24/09:30pm S 4 5 - - - - 10 - - 21.5 1014.9 0.0
24/09:00pm SSW 5 6 - - - - 10 - - 22.1 1014.9 0.0
24/08:30pm SSW 6 9 - - - - 10 - - 22.6 1014.7 0.0
24/08:00pm SSW 7 9 - - - - 10 - - 22.7 1014.4 0.0
24/07:30pm SSW 8 11 - - - - 10 - - 22.9 1014.2 0.0
24/07:00pm SSW 7 8 - - - - 10 - - 23.2 1014.0 0.0
24/06:30pm SW 6 9 - - - - 10 - - 23.5 1013.6 0.0
24/06:00pm SSW 6 7 - - - - 10 - - 23.8 1013.4 0.0
24/05:30pm SW 4 5 - - - - 10 - - 25.0 1013.1 0.0
24/05:00pm SSW 6 8 - - - - 10 - - 26.4 1012.9 0.0
24/04:30pm S 6 10 - - - - 10 - - 26.8 1012.6 0.0
24/04:00pm ESE 5 7 - - - - 10 - - 28.2 1012.5 0.0
24/03:30pm SE 6 9 - - - - 10 - - 28.5 1012.6 0.0
24/03:00pm ESE 7 10 - - - - 10 - - 28.7 1012.7 0.0
24/02:30pm SE 8 10 - - - - 10 - - 28.6 1012.9 0.0
24/02:00pm SE 8 11 - - - - 10 - - 28.6 1013.2 0.0
24/01:30pm SE 8 11 - - - - 10 - - 28.3 1013.6 0.0
24/01:00pm SE 8 11 - - - - 10 - - 28.4 1014.0 0.0
24/12:30pm ESE 8 14 - - - - 10 - - 29.2 1014.5 0.0
24/12:00pm ESE 10 16 - - - - 10 - - 28.5 1014.9 0.0
24/11:30am ENE 11 16 - - - - 10 - - 28.4 1015.4 0.0
24/11:00am E 10 13 - - - - 10 - - 27.3 1016.0 0.0
24/10:30am E 11 16 - - - - 10 - - 26.6 1016.4 0.0
24/10:00am ENE 11 16 - - - - 10 - - 25.8 1016.8 0.0
24/09:30am NE 11 16 - - - - 10 - - 24.8 1017.0 0.0
24/09:00am ENE 11 15 - - - - 10 - - 23.7 1017.2 0.0
24/08:30am ENE 9 12 - - - - 10 - - 21.9 1017.2 0.0
24/08:00am E 4 8 - - - - 10 - - 19.6 1017.1 0.0
24/07:30am NE 3 5 - - - - 10 - - 17.2 1016.8 0.0
24/07:00am E 3 5 - - - - 10 - - 15.7 1016.4 0.0
24/06:30am E 4 6 - - - - 10 - - 14.0 1015.9 0.0
24/06:00am ENE 4 5 - - - - 10 - - 12.6 1015.5 0.0
24/05:30am NE 4 5 - - - - 10 - - 13.0 1015.4 0.0
24/05:00am ESE 4 6 - - - - 10 - - 13.7 1015.1 0.0
24/04:30am SE 4 5 - - - - 10 - - 15.3 1015.0 0.0
24/04:00am SE 4 5 - - - - 10 - - 15.0 1014.8 0.0
24/03:30am E 3 4 - - - - 10 - - 14.5 1015.0 0.0
24/03:00am CALM 0 0 - - - - 10 - - 14.3 1015.1 0.0
24/02:30am E 3 4 - - - - 10 - - 15.5 1015.2 0.0
24/02:00am E 5 5 - - - - 10 - - 16.1 1015.3 0.0
24/01:30am E 5 6 - - - - 10 - - 17.1 1015.6 0.0
24/01:00am E 5 7 - - - - 10 - - 17.6 1015.8 0.0
24/12:30am E 5 6 - - - - 10 - - 17.7 1015.9 0.0
24/12:00am ESE 6 9 - - - - 10 - - 20.4 1015.9 0.0
 
Date/Time
WST
Wind Sea
Height
m
Swell Vis
km
Cloud Weather Temp
°C
Press
MSL
hPa
Rain since
9am
mm
Dir  Spd
kts
Gust
kts
Height
m
Period
s
Dir
23/11:30pm ESE 6 9 - - - - 10 - - 20.5 1016.0 0.0
23/11:00pm ESE 9 13 - - - - 10 - - 21.9 1016.0 0.0
23/10:30pm SE 8 12 - - - - 10 - - 22.5 1015.9 0.0
23/10:00pm SE 9 14 - - - - 10 - - 23.0 1016.0 0.0
23/09:30pm SE 8 13 - - - - 10 - - 23.0 1015.9 0.0
23/09:00pm SE 6 9 - - - - 10 - - 23.2 1015.9 0.0
23/08:30pm SSW 5 7 - - - - 10 - - 23.1 1015.8 0.0
23/08:00pm SSW 6 8 - - - - 10 - - 23.5 1015.8 0.0
23/07:30pm SSW 6 8 - - - - 10 - - 23.6 1015.6 0.0
23/07:00pm SSW 7 8 - - - - 10 - - 24.0 1015.4 0.0
23/06:30pm SSW 7 8 - - - - 10 - - 24.2 1015.1 0.0
23/06:00pm SSW 6 8 - - - - 10 - - 24.7 1014.8 0.0
23/05:30pm SSW 5 8 - - - - 10 - - 26.2 1014.3 0.0
23/05:00pm S 4 6 - - - - 10 - - 28.1 1014.0 0.0
23/04:30pm S 5 6 - - - - 10 - - 29.0 1013.9 0.0
23/04:00pm SSE 6 7 - - - - 10 - - 29.2 1013.9 0.0
23/03:30pm SSE 6 9 - - - - 10 - - 29.5 1014.0 0.0
23/03:00pm SSE 7 10 - - - - 10 - - 29.6 1014.0 0.0
23/02:30pm SSE 8 10 - - - - 10 - - 29.5 1014.3 0.0
23/02:00pm SSE 9 11 - - - - 10 - - 29.3 1014.5 0.0
23/01:30pm SE 8 12 - - - - 10 - - 29.4 1014.7 0.0
23/01:00pm SE 10 13 - - - - 10 - - 29.2 1015.0 0.0
23/12:30pm ESE 9 13 - - - - 10 - - 29.8 1015.5 0.0
23/12:00pm E 9 14 - - - - 10 - - 29.9 1016.0 0.0
23/11:30am E 9 13 - - - - 10 - - 29.5 1016.7 0.0
23/11:00am E 10 14 - - - - 10 - - 28.8 1017.1 0.0
23/10:30am E 9 12 - - - - 10 - - 28.3 1017.6 0.0
23/10:00am E 11 16 - - - - 10 - - 27.1 1017.8 0.0
23/09:30am E 12 19 - - - - 10 - - 25.5 1018.3 0.0
23/09:00am E 9 13 - - - - 10 - - 24.2 1018.6 0.0
23/08:30am E 7 11 - - - - 10 - - 22.6 1018.3 0.0
23/08:00am ESE 6 9 - - - - 10 - - 21.0 1018.2 0.0
23/07:30am ESE 5 7 - - - - 10 - - 19.6 1018.0 0.0
23/07:00am ESE 5 6 - - - - 10 - - 17.9 1017.6 0.0
23/06:30am ESE 4 5 - - - - 10 - - 16.2 1017.1 0.0
23/06:00am ESE 4 5 - - - - 10 - - 16.2 1016.7 0.0
23/05:30am ESE 5 6 - - - - 10 - - 16.3 1016.5 0.0
23/05:00am ESE 5 7 - - - - 10 - - 16.6 1016.6 0.0
23/04:30am ESE 4 5 - - - - 10 - - 16.1 1016.6 0.0
23/04:00am ESE 4 5 - - - - 10 - - 16.1 1016.5 0.0
23/03:30am ESE 5 6 - - - - 10 - - 17.3 1016.5 0.0
23/03:00am E 4 6 - - - - 10 - - 17.9 1016.7 0.0
23/02:30am ESE 5 8 - - - - 10 - - 19.0 1016.5 0.0
23/02:00am E 6 8 - - - - 10 - - 20.0 1016.5 0.0
23/01:30am ESE 8 12 - - - - 10 - - 22.2 1016.5 0.0
23/01:00am SE 8 12 - - - - 10 - - 22.6 1016.6 0.0
23/12:30am SE 8 12 - - - - 10 - - 22.9 1016.6 0.0
23/12:00am SE 7 11 - - - - 10 - - 23.0 1016.7 0.0
 
Date/Time
WST
Wind Sea
Height
m
Swell Vis
km
Cloud Weather Temp
°C
Press
MSL
hPa
Rain since
9am
mm
Dir  Spd
kts
Gust
kts
Height
m
Period
s
Dir
22/11:30pm SSE 7 9 - - - - 10 - - 23.0 1016.7 0.0
22/11:00pm SSE 7 10 - - - - 10 - - 23.3 1016.7 0.0
22/10:30pm ESE 7 11 - - - - 10 - - 23.4 1016.8 0.0
22/10:00pm ESE 4 7 - - - - 10 - - 22.6 1016.7 0.0
22/09:30pm S 4 5 - - - - 10 - - 23.3 1016.7 0.0
22/09:00pm SSW 5 6 - - - - 10 - - 23.7 1016.7 0.0
22/08:30pm SSW 6 9 - - - - 10 - - 24.2 1016.6 0.0
22/08:00pm SSW 7 9 - - - - 10 - - 24.5 1016.4 0.0
22/07:30pm SSW 7 8 - - - - 10 - - 24.5 1016.1 0.0
22/07:00pm SSW 6 8 - - - - 10 - - 25.9 1015.9 0.0
22/06:30pm SSW 4 6 - - - - 10 - - 25.8 1015.7 0.0
22/06:00pm SSW 4 5 - - - - 10 - - 26.1 1015.5 0.0
22/05:30pm SW 5 6 - - - - 10 - - 27.5 1015.2 0.0
22/05:00pm SSW 4 5 - - - - 10 - - 29.6 1015.0 0.0
22/04:30pm S 4 5 - - - - 10 - - 30.4 1014.7 0.0
22/04:00pm S 4 6 - - - - 10 - - 30.8 1014.5 0.0
22/03:30pm SSE 5 6 - - - - 10 - - 30.8 1014.5 0.0
22/03:00pm SE 5 7 - - - - 10 - - 31.0 1014.5 0.0
22/02:30pm SSE 7 9 - - - - 10 - - 30.6 1014.7 0.0
22/02:00pm SE 8 11 - - - - 10 - - 30.6 1014.8 0.0
22/01:30pm SE 9 13 - - - - 10 - - 30.5 1015.0 0.0
22/01:00pm SE 9 14 - - - - 10 - - 30.0 1015.3 0.0
22/12:30pm ESE 8 12 - - - - 10 - - 30.7 1015.8 0.0
22/12:00pm E 10 14 - - - - 10 - - 30.4 1016.4 0.0
22/11:30am ENE 11 15 - - - - 10 - - 29.8 1017.0 0.0
22/11:00am E 11 16 - - - - 10 - - 28.9 1017.4 0.0
22/10:30am E 11 15 - - - - 10 - - 28.3 1017.9 0.0
22/10:00am ENE 12 18 - - - - 10 - - 27.5 1018.3 0.0

Other formats

Comma delimited format used in spreadsheet applications
http://www.bom.gov.au/fwo/IDW60701/IDW60701.94203.axf

JavaScript Object Notation format (JSON) in row-major order
http://www.bom.gov.au/fwo/IDW60701/IDW60701.94203.json

Data quality

Most of these data are generated automatically and are frequently updated. Quality checks on data are not normally performed. It is possible for incorrect values to appear. Refer to information at About Latest Weather Observations and please check the disclaimer before using these data.